sensor_id;sensor_type;location;lat;lon;timestamp;P1;durP1;ratioP1;P2;durP2;ratioP2
249;SDS011;109;19.806;-70.704;2023-07-13T00:01:44;40.47;;;8.87;;
249;SDS011;109;19.806;-70.704;2023-07-13T00:04:19;38.73;;;8.37;;
249;SDS011;109;19.806;-70.704;2023-07-13T00:06:48;39.87;;;9.03;;
249;SDS011;109;19.806;-70.704;2023-07-13T00:09:16;48.37;;;11.00;;
249;SDS011;109;19.806;-70.704;2023-07-13T00:11:44;45.93;;;9.57;;
249;SDS011;109;19.806;-70.704;2023-07-13T00:14:13;53.93;;;10.10;;
249;SDS011;109;19.806;-70.704;2023-07-13T00:16:41;46.47;;;10.93;;
249;SDS011;109;19.806;-70.704;2023-07-13T00:19:09;49.10;;;8.57;;
249;SDS011;109;19.806;-70.704;2023-07-13T00:21:37;45.30;;;9.17;;
249;SDS011;109;19.806;-70.704;2023-07-13T00:24:05;47.63;;;9.13;;
249;SDS011;109;19.806;-70.704;2023-07-13T00:26:33;36.17;;;8.43;;
249;SDS011;109;19.806;-70.704;2023-07-13T00:29:00;38.00;;;8.90;;
249;SDS011;109;19.806;-70.704;2023-07-13T00:31:28;42.70;;;8.60;;
249;SDS011;109;19.806;-70.704;2023-07-13T00:33:56;33.73;;;7.63;;
249;SDS011;109;19.806;-70.704;2023-07-13T00:36:23;30.93;;;7.50;;
249;SDS011;109;19.806;-70.704;2023-07-13T00:38:49;35.60;;;7.13;;
249;SDS011;109;19.806;-70.704;2023-07-13T00:41:16;32.50;;;8.27;;
249;SDS011;109;19.806;-70.704;2023-07-13T00:43:42;31.70;;;8.60;;
249;SDS011;109;19.806;-70.704;2023-07-13T00:46:30;29.30;;;8.40;;
249;SDS011;109;19.806;-70.704;2023-07-13T00:48:59;38.93;;;9.30;;
249;SDS011;109;19.806;-70.704;2023-07-13T00:51:45;39.17;;;8.60;;
249;SDS011;109;19.806;-70.704;2023-07-13T00:54:24;54.07;;;10.07;;
249;SDS011;109;19.806;-70.704;2023-07-13T00:57:07;42.43;;;8.30;;
249;SDS011;109;19.806;-70.704;2023-07-13T00:59:47;41.63;;;8.20;;
249;SDS011;109;19.806;-70.704;2023-07-13T01:02:24;32.30;;;8.17;;
249;SDS011;109;19.806;-70.704;2023-07-13T01:04:51;37.57;;;7.60;;
249;SDS011;109;19.806;-70.704;2023-07-13T01:07:26;45.13;;;8.13;;
249;SDS011;109;19.806;-70.704;2023-07-13T01:09:56;32.00;;;7.00;;
249;SDS011;109;19.806;-70.704;2023-07-13T01:12:29;39.10;;;7.03;;
249;SDS011;109;19.806;-70.704;2023-07-13T01:14:57;34.50;;;8.03;;
249;SDS011;109;19.806;-70.704;2023-07-13T01:17:33;42.03;;;9.00;;
249;SDS011;109;19.806;-70.704;2023-07-13T01:20:00;43.73;;;8.57;;
249;SDS011;109;19.806;-70.704;2023-07-13T01:22:33;39.60;;;8.10;;
249;SDS011;109;19.806;-70.704;2023-07-13T01:24:59;38.33;;;7.23;;
249;SDS011;109;19.806;-70.704;2023-07-13T01:27:33;36.33;;;8.33;;
249;SDS011;109;19.806;-70.704;2023-07-13T01:29:59;34.13;;;7.33;;
249;SDS011;109;19.806;-70.704;2023-07-13T01:32:36;36.67;;;8.57;;
249;SDS011;109;19.806;-70.704;2023-07-13T01:35:02;31.67;;;7.43;;
249;SDS011;109;19.806;-70.704;2023-07-13T01:37:36;33.60;;;7.03;;
249;SDS011;109;19.806;-70.704;2023-07-13T01:40:04;27.53;;;6.57;;
249;SDS011;109;19.806;-70.704;2023-07-13T01:42:45;38.93;;;7.17;;
249;SDS011;109;19.806;-70.704;2023-07-13T01:45:19;31.23;;;7.70;;
249;SDS011;109;19.806;-70.704;2023-07-13T01:47:47;41.60;;;8.17;;
249;SDS011;109;19.806;-70.704;2023-07-13T01:50:20;27.37;;;6.87;;
249;SDS011;109;19.806;-70.704;2023-07-13T01:52:46;43.47;;;9.20;;
249;SDS011;109;19.806;-70.704;2023-07-13T01:55:20;34.27;;;9.10;;
249;SDS011;109;19.806;-70.704;2023-07-13T01:57:47;32.00;;;8.60;;
249;SDS011;109;19.806;-70.704;2023-07-13T02:00:21;33.33;;;8.30;;
249;SDS011;109;19.806;-70.704;2023-07-13T02:02:47;40.37;;;7.87;;
249;SDS011;109;19.806;-70.704;2023-07-13T02:05:21;39.87;;;8.40;;
249;SDS011;109;19.806;-70.704;2023-07-13T02:07:47;37.60;;;8.03;;
249;SDS011;109;19.806;-70.704;2023-07-13T02:10:21;25.60;;;8.03;;
249;SDS011;109;19.806;-70.704;2023-07-13T02:12:48;41.63;;;7.43;;
249;SDS011;109;19.806;-70.704;2023-07-13T02:15:23;33.80;;;8.57;;
249;SDS011;109;19.806;-70.704;2023-07-13T02:17:50;33.10;;;7.10;;
249;SDS011;109;19.806;-70.704;2023-07-13T02:20:23;24.73;;;7.63;;
249;SDS011;109;19.806;-70.704;2023-07-13T02:22:50;29.23;;;7.70;;
249;SDS011;109;19.806;-70.704;2023-07-13T02:25:29;24.77;;;6.37;;
249;SDS011;109;19.806;-70.704;2023-07-13T02:28:03;33.60;;;7.77;;
249;SDS011;109;19.806;-70.704;2023-07-13T02:30:29;36.60;;;8.20;;
249;SDS011;109;19.806;-70.704;2023-07-13T02:33:03;37.73;;;7.90;;
249;SDS011;109;19.806;-70.704;2023-07-13T02:35:29;29.13;;;7.30;;
249;SDS011;109;19.806;-70.704;2023-07-13T02:38:03;37.17;;;7.43;;
249;SDS011;109;19.806;-70.704;2023-07-13T02:40:30;35.73;;;8.60;;
249;SDS011;109;19.806;-70.704;2023-07-13T02:43:05;38.93;;;7.63;;
249;SDS011;109;19.806;-70.704;2023-07-13T02:45:46;26.47;;;7.20;;
249;SDS011;109;19.806;-70.704;2023-07-13T02:48:13;23.77;;;6.50;;
249;SDS011;109;19.806;-70.704;2023-07-13T02:50:47;24.70;;;6.20;;
249;SDS011;109;19.806;-70.704;2023-07-13T02:53:13;33.90;;;6.70;;
249;SDS011;109;19.806;-70.704;2023-07-13T02:55:47;30.33;;;7.10;;
249;SDS011;109;19.806;-70.704;2023-07-13T02:58:13;32.73;;;7.77;;
249;SDS011;109;19.806;-70.704;2023-07-13T03:00:49;30.53;;;6.93;;
249;SDS011;109;19.806;-70.704;2023-07-13T03:03:17;26.33;;;7.33;;
249;SDS011;109;19.806;-70.704;2023-07-13T03:05:57;31.30;;;8.00;;
249;SDS011;109;19.806;-70.704;2023-07-13T03:08:40;26.10;;;7.60;;
249;SDS011;109;19.806;-70.704;2023-07-13T03:11:15;22.37;;;6.70;;
249;SDS011;109;19.806;-70.704;2023-07-13T03:13:57;31.80;;;7.93;;
249;SDS011;109;19.806;-70.704;2023-07-13T03:16:35;29.83;;;6.97;;
249;SDS011;109;19.806;-70.704;2023-07-13T03:19:15;30.00;;;6.73;;
249;SDS011;109;19.806;-70.704;2023-07-13T03:21:50;26.37;;;6.77;;
249;SDS011;109;19.806;-70.704;2023-07-13T03:24:17;25.07;;;7.13;;
249;SDS011;109;19.806;-70.704;2023-07-13T03:26:51;30.63;;;7.00;;
249;SDS011;109;19.806;-70.704;2023-07-13T03:29:18;28.53;;;6.87;;
249;SDS011;109;19.806;-70.704;2023-07-13T03:31:51;32.17;;;7.20;;
249;SDS011;109;19.806;-70.704;2023-07-13T03:34:18;26.87;;;7.80;;
249;SDS011;109;19.806;-70.704;2023-07-13T03:36:53;32.17;;;7.00;;
249;SDS011;109;19.806;-70.704;2023-07-13T03:39:21;20.80;;;6.27;;
249;SDS011;109;19.806;-70.704;2023-07-13T03:41:56;32.00;;;7.17;;
249;SDS011;109;19.806;-70.704;2023-07-13T03:44:42;23.20;;;6.23;;
249;SDS011;109;19.806;-70.704;2023-07-13T03:47:24;20.30;;;5.80;;
249;SDS011;109;19.806;-70.704;2023-07-13T03:49:50;24.87;;;7.10;;
249;SDS011;109;19.806;-70.704;2023-07-13T03:52:23;41.37;;;7.40;;
249;SDS011;109;19.806;-70.704;2023-07-13T03:54:50;19.10;;;6.60;;
249;SDS011;109;19.806;-70.704;2023-07-13T03:57:24;19.57;;;6.83;;
249;SDS011;109;19.806;-70.704;2023-07-13T03:59:50;21.17;;;7.30;;
249;SDS011;109;19.806;-70.704;2023-07-13T04:02:31;31.57;;;8.10;;
249;SDS011;109;19.806;-70.704;2023-07-13T04:05:05;21.40;;;6.77;;
249;SDS011;109;19.806;-70.704;2023-07-13T04:07:32;27.20;;;8.00;;
249;SDS011;109;19.806;-70.704;2023-07-13T04:10:06;26.47;;;7.77;;
249;SDS011;109;19.806;-70.704;2023-07-13T04:12:33;24.60;;;7.07;;
249;SDS011;109;19.806;-70.704;2023-07-13T04:15:06;22.93;;;6.83;;
249;SDS011;109;19.806;-70.704;2023-07-13T04:17:33;15.60;;;5.80;;
249;SDS011;109;19.806;-70.704;2023-07-13T04:20:06;25.90;;;6.50;;
249;SDS011;109;19.806;-70.704;2023-07-13T04:22:33;20.80;;;6.43;;
249;SDS011;109;19.806;-70.704;2023-07-13T04:25:06;22.50;;;6.43;;
249;SDS011;109;19.806;-70.704;2023-07-13T04:27:33;27.07;;;6.70;;
249;SDS011;109;19.806;-70.704;2023-07-13T04:30:06;26.10;;;6.03;;
249;SDS011;109;19.806;-70.704;2023-07-13T04:32:33;29.63;;;7.50;;
249;SDS011;109;19.806;-70.704;2023-07-13T04:35:06;20.47;;;5.37;;
249;SDS011;109;19.806;-70.704;2023-07-13T04:37:33;18.23;;;5.37;;
249;SDS011;109;19.806;-70.704;2023-07-13T04:40:07;17.40;;;5.63;;
249;SDS011;109;19.806;-70.704;2023-07-13T04:42:44;21.10;;;6.23;;
249;SDS011;109;19.806;-70.704;2023-07-13T04:45:31;24.30;;;6.70;;
249;SDS011;109;19.806;-70.704;2023-07-13T04:48:05;32.10;;;6.90;;
249;SDS011;109;19.806;-70.704;2023-07-13T04:50:31;33.57;;;5.63;;
249;SDS011;109;19.806;-70.704;2023-07-13T04:53:05;21.50;;;6.80;;
249;SDS011;109;19.806;-70.704;2023-07-13T04:55:32;19.07;;;6.30;;
249;SDS011;109;19.806;-70.704;2023-07-13T04:58:05;19.90;;;6.70;;
249;SDS011;109;19.806;-70.704;2023-07-13T05:00:31;20.67;;;6.60;;
249;SDS011;109;19.806;-70.704;2023-07-13T05:03:13;20.90;;;6.40;;
249;SDS011;109;19.806;-70.704;2023-07-13T05:06:04;23.43;;;6.73;;
249;SDS011;109;19.806;-70.704;2023-07-13T05:08:42;26.03;;;5.83;;
249;SDS011;109;19.806;-70.704;2023-07-13T05:11:08;13.80;;;5.47;;
249;SDS011;109;19.806;-70.704;2023-07-13T05:13:42;22.47;;;6.00;;
249;SDS011;109;19.806;-70.704;2023-07-13T05:16:08;32.93;;;6.30;;
249;SDS011;109;19.806;-70.704;2023-07-13T05:18:42;18.10;;;6.17;;
249;SDS011;109;19.806;-70.704;2023-07-13T05:21:09;25.60;;;6.00;;
249;SDS011;109;19.806;-70.704;2023-07-13T05:23:43;18.47;;;6.83;;
249;SDS011;109;19.806;-70.704;2023-07-13T05:26:10;23.53;;;6.50;;
249;SDS011;109;19.806;-70.704;2023-07-13T05:28:44;25.93;;;7.47;;
249;SDS011;109;19.806;-70.704;2023-07-13T05:31:10;21.47;;;6.67;;
249;SDS011;109;19.806;-70.704;2023-07-13T05:33:44;15.60;;;5.50;;
249;SDS011;109;19.806;-70.704;2023-07-13T05:36:10;24.93;;;5.80;;
249;SDS011;109;19.806;-70.704;2023-07-13T05:38:44;21.03;;;6.33;;
249;SDS011;109;19.806;-70.704;2023-07-13T05:41:10;27.37;;;5.97;;
249;SDS011;109;19.806;-70.704;2023-07-13T05:43:44;16.73;;;5.13;;
249;SDS011;109;19.806;-70.704;2023-07-13T05:46:31;19.63;;;5.40;;
249;SDS011;109;19.806;-70.704;2023-07-13T05:49:06;18.27;;;5.17;;
249;SDS011;109;19.806;-70.704;2023-07-13T05:51:32;20.03;;;5.27;;
249;SDS011;109;19.806;-70.704;2023-07-13T05:54:06;18.30;;;4.20;;
249;SDS011;109;19.806;-70.704;2023-07-13T05:56:32;20.93;;;4.73;;
249;SDS011;109;19.806;-70.704;2023-07-13T05:59:06;18.50;;;4.70;;
249;SDS011;109;19.806;-70.704;2023-07-13T06:01:32;20.20;;;5.60;;
249;SDS011;109;19.806;-70.704;2023-07-13T06:04:06;14.27;;;4.53;;
249;SDS011;109;19.806;-70.704;2023-07-13T06:06:32;17.40;;;4.80;;
249;SDS011;109;19.806;-70.704;2023-07-13T06:09:06;21.97;;;5.13;;
249;SDS011;109;19.806;-70.704;2023-07-13T06:11:32;14.50;;;4.90;;
249;SDS011;109;19.806;-70.704;2023-07-13T06:14:07;19.93;;;5.90;;
249;SDS011;109;19.806;-70.704;2023-07-13T06:16:33;23.93;;;6.00;;
249;SDS011;109;19.806;-70.704;2023-07-13T06:19:07;23.40;;;5.23;;
249;SDS011;109;19.806;-70.704;2023-07-13T06:21:33;19.93;;;5.57;;
249;SDS011;109;19.806;-70.704;2023-07-13T06:24:07;34.73;;;7.47;;
249;SDS011;109;19.806;-70.704;2023-07-13T06:26:33;23.60;;;6.13;;
249;SDS011;109;19.806;-70.704;2023-07-13T06:29:07;25.97;;;5.70;;
249;SDS011;109;19.806;-70.704;2023-07-13T06:31:33;19.50;;;5.40;;
249;SDS011;109;19.806;-70.704;2023-07-13T06:34:07;29.17;;;7.27;;
249;SDS011;109;19.806;-70.704;2023-07-13T06:36:33;25.17;;;6.67;;
249;SDS011;109;19.806;-70.704;2023-07-13T06:39:08;25.67;;;6.20;;
249;SDS011;109;19.806;-70.704;2023-07-13T06:41:41;30.40;;;7.00;;
249;SDS011;109;19.806;-70.704;2023-07-13T06:44:17;28.27;;;6.10;;
249;SDS011;109;19.806;-70.704;2023-07-13T06:46:57;22.37;;;5.40;;
249;SDS011;109;19.806;-70.704;2023-07-13T06:49:23;16.73;;;5.63;;
249;SDS011;109;19.806;-70.704;2023-07-13T06:51:56;20.50;;;5.70;;
249;SDS011;109;19.806;-70.704;2023-07-13T06:54:22;17.60;;;4.90;;
249;SDS011;109;19.806;-70.704;2023-07-13T06:56:56;18.10;;;4.73;;
249;SDS011;109;19.806;-70.704;2023-07-13T06:59:22;17.40;;;4.60;;
249;SDS011;109;19.806;-70.704;2023-07-13T07:01:56;17.50;;;4.60;;
249;SDS011;109;19.806;-70.704;2023-07-13T07:04:22;23.50;;;4.93;;
249;SDS011;109;19.806;-70.704;2023-07-13T07:06:56;13.80;;;5.00;;
249;SDS011;109;19.806;-70.704;2023-07-13T07:09:22;18.27;;;6.20;;
249;SDS011;109;19.806;-70.704;2023-07-13T07:11:56;20.90;;;5.10;;
249;SDS011;109;19.806;-70.704;2023-07-13T07:14:23;20.50;;;5.97;;
249;SDS011;109;19.806;-70.704;2023-07-13T07:16:56;17.27;;;6.13;;
249;SDS011;109;19.806;-70.704;2023-07-13T07:19:24;22.27;;;5.67;;
249;SDS011;109;19.806;-70.704;2023-07-13T07:21:57;27.47;;;5.33;;
249;SDS011;109;19.806;-70.704;2023-07-13T07:24:23;14.50;;;5.27;;
249;SDS011;109;19.806;-70.704;2023-07-13T07:26:57;20.97;;;6.17;;
249;SDS011;109;19.806;-70.704;2023-07-13T07:29:31;18.63;;;6.23;;
249;SDS011;109;19.806;-70.704;2023-07-13T07:32:05;22.03;;;5.80;;
249;SDS011;109;19.806;-70.704;2023-07-13T07:34:32;23.63;;;6.37;;
249;SDS011;109;19.806;-70.704;2023-07-13T07:37:05;21.43;;;6.40;;
249;SDS011;109;19.806;-70.704;2023-07-13T07:39:31;17.27;;;6.00;;
249;SDS011;109;19.806;-70.704;2023-07-13T07:42:05;17.27;;;6.97;;
249;SDS011;109;19.806;-70.704;2023-07-13T07:44:52;23.20;;;7.10;;
249;SDS011;109;19.806;-70.704;2023-07-13T07:47:26;20.90;;;7.27;;
249;SDS011;109;19.806;-70.704;2023-07-13T07:49:52;20.60;;;6.90;;
249;SDS011;109;19.806;-70.704;2023-07-13T07:52:26;26.40;;;6.37;;
249;SDS011;109;19.806;-70.704;2023-07-13T07:54:52;13.93;;;4.93;;
249;SDS011;109;19.806;-70.704;2023-07-13T07:57:25;22.17;;;5.20;;
249;SDS011;109;19.806;-70.704;2023-07-13T07:59:51;20.57;;;5.20;;
249;SDS011;109;19.806;-70.704;2023-07-13T08:02:32;18.53;;;6.77;;
249;SDS011;109;19.806;-70.704;2023-07-13T08:05:05;16.60;;;5.20;;
249;SDS011;109;19.806;-70.704;2023-07-13T08:07:31;23.40;;;6.43;;
249;SDS011;109;19.806;-70.704;2023-07-13T08:10:05;17.73;;;6.00;;
249;SDS011;109;19.806;-70.704;2023-07-13T08:12:36;14.67;;;5.47;;
249;SDS011;109;19.806;-70.704;2023-07-13T08:15:12;22.67;;;5.00;;
249;SDS011;109;19.806;-70.704;2023-07-13T08:17:49;16.17;;;5.13;;
249;SDS011;109;19.806;-70.704;2023-07-13T08:20:23;11.73;;;5.40;;
249;SDS011;109;19.806;-70.704;2023-07-13T08:23:10;17.70;;;5.13;;
249;SDS011;109;19.806;-70.704;2023-07-13T08:25:49;18.77;;;5.20;;
249;SDS011;109;19.806;-70.704;2023-07-13T08:28:26;16.27;;;5.70;;
249;SDS011;109;19.806;-70.704;2023-07-13T08:30:53;16.03;;;5.87;;
249;SDS011;109;19.806;-70.704;2023-07-13T08:33:26;19.50;;;5.80;;
249;SDS011;109;19.806;-70.704;2023-07-13T08:35:52;14.97;;;5.47;;
249;SDS011;109;19.806;-70.704;2023-07-13T08:38:26;19.57;;;4.70;;
249;SDS011;109;19.806;-70.704;2023-07-13T08:40:53;11.53;;;4.63;;
249;SDS011;109;19.806;-70.704;2023-07-13T08:43:28;9.73;;;4.27;;
249;SDS011;109;19.806;-70.704;2023-07-13T08:46:18;14.87;;;5.30;;
249;SDS011;109;19.806;-70.704;2023-07-13T08:48:57;17.80;;;5.10;;
249;SDS011;109;19.806;-70.704;2023-07-13T08:51:36;19.10;;;4.73;;
249;SDS011;109;19.806;-70.704;2023-07-13T08:54:40;13.10;;;4.67;;
249;SDS011;109;19.806;-70.704;2023-07-13T08:57:14;16.40;;;5.17;;
249;SDS011;109;19.806;-70.704;2023-07-13T08:59:43;13.43;;;4.60;;
249;SDS011;109;19.806;-70.704;2023-07-13T09:02:45;12.57;;;3.97;;
249;SDS011;109;19.806;-70.704;2023-07-13T09:13:58;15.73;;;4.47;;
249;SDS011;109;19.806;-70.704;2023-07-13T09:16:59;10.83;;;3.50;;
249;SDS011;109;19.806;-70.704;2023-07-13T09:19:37;9.53;;;3.13;;
249;SDS011;109;19.806;-70.704;2023-07-13T09:22:04;10.00;;;4.03;;
249;SDS011;109;19.806;-70.704;2023-07-13T09:25:00;14.00;;;3.77;;
249;SDS011;109;19.806;-70.704;2023-07-13T09:27:43;11.10;;;3.80;;
249;SDS011;109;19.806;-70.704;2023-07-13T09:30:30;9.13;;;3.90;;
249;SDS011;109;19.806;-70.704;2023-07-13T09:33:27;8.00;;;3.63;;
249;SDS011;109;19.806;-70.704;2023-07-13T09:35:55;8.87;;;3.20;;
249;SDS011;109;19.806;-70.704;2023-07-13T09:38:32;5.63;;;3.30;;
249;SDS011;109;19.806;-70.704;2023-07-13T09:41:14;7.00;;;3.40;;
249;SDS011;109;19.806;-70.704;2023-07-13T09:46:52;10.33;;;3.50;;
249;SDS011;109;19.806;-70.704;2023-07-13T09:49:24;6.70;;;3.73;;
249;SDS011;109;19.806;-70.704;2023-07-13T09:52:00;5.13;;;2.93;;
249;SDS011;109;19.806;-70.704;2023-07-13T09:54:48;10.67;;;3.37;;
249;SDS011;109;19.806;-70.704;2023-07-13T09:57:23;10.13;;;3.53;;
249;SDS011;109;19.806;-70.704;2023-07-13T09:59:52;5.27;;;3.10;;
249;SDS011;109;19.806;-70.704;2023-07-13T10:02:33;7.00;;;3.03;;
249;SDS011;109;19.806;-70.704;2023-07-13T10:05:10;8.00;;;3.37;;
249;SDS011;109;19.806;-70.704;2023-07-13T10:07:46;5.90;;;3.07;;
249;SDS011;109;19.806;-70.704;2023-07-13T10:10:15;6.83;;;3.00;;
249;SDS011;109;19.806;-70.704;2023-07-13T10:12:50;8.90;;;3.20;;
249;SDS011;109;19.806;-70.704;2023-07-13T10:15:20;11.30;;;3.50;;
249;SDS011;109;19.806;-70.704;2023-07-13T10:17:55;10.70;;;3.70;;
249;SDS011;109;19.806;-70.704;2023-07-13T10:20:23;15.47;;;3.83;;
249;SDS011;109;19.806;-70.704;2023-07-13T10:25:32;8.50;;;3.30;;
249;SDS011;109;19.806;-70.704;2023-07-13T10:28:41;9.43;;;3.33;;
249;SDS011;109;19.806;-70.704;2023-07-13T10:31:11;11.87;;;3.30;;
249;SDS011;109;19.806;-70.704;2023-07-13T10:33:48;10.57;;;3.83;;
249;SDS011;109;19.806;-70.704;2023-07-13T10:39:04;19.23;;;3.77;;
249;SDS011;109;19.806;-70.704;2023-07-13T10:41:59;9.30;;;3.63;;
249;SDS011;109;19.806;-70.704;2023-07-13T10:44:36;15.40;;;3.47;;
249;SDS011;109;19.806;-70.704;2023-07-13T10:47:06;3.63;;;3.33;;
249;SDS011;109;19.806;-70.704;2023-07-13T10:49:44;18.30;;;4.10;;
249;SDS011;109;19.806;-70.704;2023-07-13T10:53:16;9.90;;;3.10;;
249;SDS011;109;19.806;-70.704;2023-07-13T10:56:22;12.80;;;3.60;;
249;SDS011;109;19.806;-70.704;2023-07-13T10:58:36;23.90;;;4.97;;
249;SDS011;109;19.806;-70.704;2023-07-13T11:01:14;21.03;;;4.90;;
249;SDS011;109;19.806;-70.704;2023-07-13T11:04:01;14.23;;;4.17;;
249;SDS011;109;19.806;-70.704;2023-07-13T11:06:39;14.73;;;3.70;;
249;SDS011;109;19.806;-70.704;2023-07-13T11:09:24;11.80;;;3.60;;
249;SDS011;109;19.806;-70.704;2023-07-13T11:11:58;17.10;;;3.67;;
249;SDS011;109;19.806;-70.704;2023-07-13T11:14:28;7.50;;;3.70;;
249;SDS011;109;19.806;-70.704;2023-07-13T11:22:47;20.77;;;4.73;;
249;SDS011;109;19.806;-70.704;2023-07-13T11:25:29;15.57;;;4.13;;
249;SDS011;109;19.806;-70.704;2023-07-13T11:28:06;14.87;;;3.67;;
249;SDS011;109;19.806;-70.704;2023-07-13T11:33:13;16.43;;;4.17;;
249;SDS011;109;19.806;-70.704;2023-07-13T11:38:17;21.97;;;4.73;;
249;SDS011;109;19.806;-70.704;2023-07-13T11:40:50;12.50;;;4.50;;
249;SDS011;109;19.806;-70.704;2023-07-13T11:43:19;15.67;;;4.97;;
249;SDS011;109;19.806;-70.704;2023-07-13T11:45:49;9.70;;;4.30;;
249;SDS011;109;19.806;-70.704;2023-07-13T11:50:55;11.90;;;3.83;;
249;SDS011;109;19.806;-70.704;2023-07-13T11:53:26;12.13;;;3.50;;
249;SDS011;109;19.806;-70.704;2023-07-13T11:55:56;11.53;;;3.57;;
249;SDS011;109;19.806;-70.704;2023-07-13T11:58:24;6.77;;;2.83;;
249;SDS011;109;19.806;-70.704;2023-07-13T12:00:51;8.43;;;3.73;;
249;SDS011;109;19.806;-70.704;2023-07-13T12:03:21;11.60;;;4.27;;
249;SDS011;109;19.806;-70.704;2023-07-13T12:06:01;11.40;;;3.73;;
249;SDS011;109;19.806;-70.704;2023-07-13T12:08:31;9.90;;;3.60;;
249;SDS011;109;19.806;-70.704;2023-07-13T12:11:16;8.77;;;3.63;;
249;SDS011;109;19.806;-70.704;2023-07-13T12:13:44;19.33;;;4.03;;
249;SDS011;109;19.806;-70.704;2023-07-13T12:16:25;16.87;;;4.33;;
249;SDS011;109;19.806;-70.704;2023-07-13T12:18:54;13.67;;;3.37;;
249;SDS011;109;19.806;-70.704;2023-07-13T12:21:25;10.90;;;4.17;;
249;SDS011;109;19.806;-70.704;2023-07-13T12:23:58;8.27;;;3.80;;
249;SDS011;109;19.806;-70.704;2023-07-13T12:26:28;9.80;;;3.43;;
249;SDS011;109;19.806;-70.704;2023-07-13T12:28:56;11.00;;;3.87;;
249;SDS011;109;19.806;-70.704;2023-07-13T12:31:31;11.13;;;3.73;;
249;SDS011;109;19.806;-70.704;2023-07-13T12:34:08;11.33;;;3.90;;
249;SDS011;109;19.806;-70.704;2023-07-13T12:36:38;6.67;;;3.00;;
249;SDS011;109;19.806;-70.704;2023-07-13T12:39:13;12.33;;;3.60;;
249;SDS011;109;19.806;-70.704;2023-07-13T12:41:41;10.00;;;3.60;;
249;SDS011;109;19.806;-70.704;2023-07-13T12:44:10;12.23;;;3.77;;
249;SDS011;109;19.806;-70.704;2023-07-13T12:46:38;10.13;;;3.37;;
249;SDS011;109;19.806;-70.704;2023-07-13T12:49:05;10.03;;;3.10;;
249;SDS011;109;19.806;-70.704;2023-07-13T12:51:33;11.20;;;4.07;;
249;SDS011;109;19.806;-70.704;2023-07-13T12:54:12;16.13;;;3.50;;
249;SDS011;109;19.806;-70.704;2023-07-13T12:56:44;8.10;;;3.90;;
249;SDS011;109;19.806;-70.704;2023-07-13T12:59:17;9.30;;;3.63;;
249;SDS011;109;19.806;-70.704;2023-07-13T13:01:46;9.60;;;3.43;;
249;SDS011;109;19.806;-70.704;2023-07-13T13:04:15;12.23;;;3.50;;
249;SDS011;109;19.806;-70.704;2023-07-13T13:06:42;12.77;;;3.40;;
249;SDS011;109;19.806;-70.704;2023-07-13T13:11:42;11.47;;;3.70;;
249;SDS011;109;19.806;-70.704;2023-07-13T13:14:08;12.27;;;3.60;;
249;SDS011;109;19.806;-70.704;2023-07-13T13:16:37;12.90;;;3.80;;
249;SDS011;109;19.806;-70.704;2023-07-13T13:22:01;15.43;;;4.13;;
249;SDS011;109;19.806;-70.704;2023-07-13T13:24:28;14.87;;;4.30;;
249;SDS011;109;19.806;-70.704;2023-07-13T13:26:54;12.67;;;4.00;;
249;SDS011;109;19.806;-70.704;2023-07-13T13:29:26;14.63;;;4.00;;
249;SDS011;109;19.806;-70.704;2023-07-13T13:31:53;17.10;;;4.53;;
249;SDS011;109;19.806;-70.704;2023-07-13T13:34:21;13.40;;;4.47;;
249;SDS011;109;19.806;-70.704;2023-07-13T13:36:55;10.60;;;3.10;;
249;SDS011;109;19.806;-70.704;2023-07-13T13:39:26;26.03;;;4.87;;
249;SDS011;109;19.806;-70.704;2023-07-13T13:41:58;27.47;;;4.30;;
249;SDS011;109;19.806;-70.704;2023-07-13T13:48:19;20.13;;;4.40;;
249;SDS011;109;19.806;-70.704;2023-07-13T13:50:56;14.43;;;4.20;;
249;SDS011;109;19.806;-70.704;2023-07-13T13:53:23;18.53;;;4.10;;
249;SDS011;109;19.806;-70.704;2023-07-13T13:55:50;12.10;;;3.70;;
249;SDS011;109;19.806;-70.704;2023-07-13T13:58:18;11.30;;;3.63;;
249;SDS011;109;19.806;-70.704;2023-07-13T14:00:45;11.90;;;3.57;;
249;SDS011;109;19.806;-70.704;2023-07-13T14:03:17;10.13;;;3.30;;
249;SDS011;109;19.806;-70.704;2023-07-13T14:05:45;15.17;;;4.37;;
249;SDS011;109;19.806;-70.704;2023-07-13T14:08:13;15.10;;;4.77;;
249;SDS011;109;19.806;-70.704;2023-07-13T14:10:42;21.37;;;5.53;;
249;SDS011;109;19.806;-70.704;2023-07-13T14:13:23;28.13;;;5.70;;
249;SDS011;109;19.806;-70.704;2023-07-13T14:15:53;25.00;;;5.20;;
249;SDS011;109;19.806;-70.704;2023-07-13T14:18:20;16.50;;;4.63;;
249;SDS011;109;19.806;-70.704;2023-07-13T14:20:47;10.93;;;3.80;;
249;SDS011;109;19.806;-70.704;2023-07-13T14:23:14;15.43;;;4.20;;
249;SDS011;109;19.806;-70.704;2023-07-13T14:25:43;21.03;;;5.13;;
249;SDS011;109;19.806;-70.704;2023-07-13T14:28:20;18.50;;;4.20;;
249;SDS011;109;19.806;-70.704;2023-07-13T14:30:52;14.10;;;4.50;;
249;SDS011;109;19.806;-70.704;2023-07-13T14:33:22;15.83;;;3.97;;
249;SDS011;109;19.806;-70.704;2023-07-13T14:35:50;15.90;;;4.27;;
249;SDS011;109;19.806;-70.704;2023-07-13T14:38:19;19.57;;;4.67;;
249;SDS011;109;19.806;-70.704;2023-07-13T14:40:49;24.20;;;5.67;;
249;SDS011;109;19.806;-70.704;2023-07-13T14:43:17;20.20;;;5.30;;
249;SDS011;109;19.806;-70.704;2023-07-13T14:45:44;26.23;;;5.50;;
249;SDS011;109;19.806;-70.704;2023-07-13T14:48:24;27.33;;;5.10;;
249;SDS011;109;19.806;-70.704;2023-07-13T14:50:58;27.60;;;5.30;;
249;SDS011;109;19.806;-70.704;2023-07-13T14:53:25;22.07;;;5.10;;
249;SDS011;109;19.806;-70.704;2023-07-13T14:55:55;22.50;;;5.10;;
249;SDS011;109;19.806;-70.704;2023-07-13T14:58:22;27.80;;;5.67;;
249;SDS011;109;19.806;-70.704;2023-07-13T15:00:49;30.00;;;6.23;;
249;SDS011;109;19.806;-70.704;2023-07-13T15:03:20;28.03;;;4.83;;
249;SDS011;109;19.806;-70.704;2023-07-13T15:05:49;38.37;;;6.03;;
249;SDS011;109;19.806;-70.704;2023-07-13T15:08:16;20.83;;;5.70;;
249;SDS011;109;19.806;-70.704;2023-07-13T15:10:43;31.03;;;5.80;;
249;SDS011;109;19.806;-70.704;2023-07-13T15:13:14;23.40;;;5.10;;
249;SDS011;109;19.806;-70.704;2023-07-13T15:15:48;26.00;;;5.20;;
249;SDS011;109;19.806;-70.704;2023-07-13T15:18:21;25.93;;;5.17;;
249;SDS011;109;19.806;-70.704;2023-07-13T15:20:50;22.73;;;5.37;;
249;SDS011;109;19.806;-70.704;2023-07-13T15:23:21;22.30;;;5.50;;
249;SDS011;109;19.806;-70.704;2023-07-13T15:25:48;24.70;;;5.67;;
249;SDS011;109;19.806;-70.704;2023-07-13T15:28:15;23.03;;;4.90;;
249;SDS011;109;19.806;-70.704;2023-07-13T15:30:43;22.83;;;4.97;;
249;SDS011;109;19.806;-70.704;2023-07-13T15:33:15;19.97;;;4.83;;
249;SDS011;109;19.806;-70.704;2023-07-13T15:35:42;29.57;;;5.67;;
249;SDS011;109;19.806;-70.704;2023-07-13T15:38:13;20.47;;;4.80;;
249;SDS011;109;19.806;-70.704;2023-07-13T15:40:41;38.00;;;5.10;;
249;SDS011;109;19.806;-70.704;2023-07-13T15:43:11;14.73;;;4.93;;
249;SDS011;109;19.806;-70.704;2023-07-13T15:45:39;15.10;;;4.60;;
249;SDS011;109;19.806;-70.704;2023-07-13T15:48:29;21.07;;;6.07;;
249;SDS011;109;19.806;-70.704;2023-07-13T15:50:59;15.80;;;4.50;;
249;SDS011;109;19.806;-70.704;2023-07-13T15:53:34;23.97;;;5.30;;
249;SDS011;109;19.806;-70.704;2023-07-13T15:56:23;18.80;;;4.80;;
249;SDS011;109;19.806;-70.704;2023-07-13T15:58:52;19.00;;;4.80;;
249;SDS011;109;19.806;-70.704;2023-07-13T16:01:19;16.50;;;4.53;;
249;SDS011;109;19.806;-70.704;2023-07-13T16:03:46;28.50;;;4.73;;
249;SDS011;109;19.806;-70.704;2023-07-13T16:06:17;28.50;;;4.40;;
249;SDS011;109;19.806;-70.704;2023-07-13T16:08:48;27.97;;;5.87;;
249;SDS011;109;19.806;-70.704;2023-07-13T16:11:18;17.87;;;4.70;;
249;SDS011;109;19.806;-70.704;2023-07-13T16:13:53;18.00;;;4.57;;
249;SDS011;109;19.806;-70.704;2023-07-13T16:16:26;29.97;;;6.17;;